sensor_id;sensor_type;location;lat;lon;timestamp;pressure;altitude;pressure_sealevel;temperature;humidity
71476;BME280;59286;59.274;17.974;2023-02-20T00:01:37;100251.97;;;-2.70;68.69
71476;BME280;59286;59.274;17.974;2023-02-20T00:04:03;100255.75;;;-2.72;69.41
71476;BME280;59286;59.274;17.974;2023-02-20T00:06:28;100267.78;;;-2.73;69.30
71476;BME280;59286;59.274;17.974;2023-02-20T00:08:54;100256.84;;;-2.80;69.94
71476;BME280;59286;59.274;17.974;2023-02-20T00:11:19;100252.28;;;-2.78;69.27
71476;BME280;59286;59.274;17.974;2023-02-20T00:13:46;100245.00;;;-2.81;69.44
71476;BME280;59286;59.274;17.974;2023-02-20T00:16:12;100241.66;;;-2.81;69.32
71476;BME280;59286;59.274;17.974;2023-02-20T00:18:37;100238.66;;;-2.78;69.09
71476;BME280;59286;59.274;17.974;2023-02-20T00:21:04;100226.63;;;-2.78;69.39
71476;BME280;59286;59.274;17.974;2023-02-20T00:23:33;100217.16;;;-2.77;69.36
71476;BME280;59286;59.274;17.974;2023-02-20T00:25:59;100204.41;;;-2.84;68.91
71476;BME280;59286;59.274;17.974;2023-02-20T00:28:24;100223.63;;;-2.75;68.72
71476;BME280;59286;59.274;17.974;2023-02-20T00:30:50;100222.84;;;-2.75;68.43
71476;BME280;59286;59.274;17.974;2023-02-20T00:33:15;100215.50;;;-2.72;68.51
71476;BME280;59286;59.274;17.974;2023-02-20T00:35:41;100229.47;;;-2.68;68.44
71476;BME280;59286;59.274;17.974;2023-02-20T00:38:06;100221.75;;;-2.68;68.22
71476;BME280;59286;59.274;17.974;2023-02-20T00:40:31;100207.38;;;-2.69;67.04
71476;BME280;59286;59.274;17.974;2023-02-20T00:42:57;100205.16;;;-2.65;67.36
71476;BME280;59286;59.274;17.974;2023-02-20T00:45:22;100213.91;;;-2.55;67.39
71476;BME280;59286;59.274;17.974;2023-02-20T00:47:47;100188.25;;;-2.55;67.24
71476;BME280;59286;59.274;17.974;2023-02-20T00:50:14;100194.38;;;-2.56;66.92
71476;BME280;59286;59.274;17.974;2023-02-20T00:52:39;100179.41;;;-2.59;66.55
71476;BME280;59286;59.274;17.974;2023-02-20T00:55:05;100169.94;;;-2.58;66.47
71476;BME280;59286;59.274;17.974;2023-02-20T00:57:31;100155.75;;;-2.61;66.77
71476;BME280;59286;59.274;17.974;2023-02-20T00:59:56;100159.91;;;-2.60;66.80
71476;BME280;59286;59.274;17.974;2023-02-20T01:02:22;100152.00;;;-2.58;66.99
71476;BME280;59286;59.274;17.974;2023-02-20T01:04:47;100147.19;;;-2.55;66.94
71476;BME280;59286;59.274;17.974;2023-02-20T01:07:13;100148.06;;;-2.61;67.29
71476;BME280;59286;59.274;17.974;2023-02-20T01:09:38;100152.50;;;-2.68;67.10
71476;BME280;59286;59.274;17.974;2023-02-20T01:12:04;100145.63;;;-2.67;67.01
71476;BME280;59286;59.274;17.974;2023-02-20T01:14:29;100143.84;;;-2.67;67.06
71476;BME280;59286;59.274;17.974;2023-02-20T01:16:55;100131.44;;;-2.70;67.27
71476;BME280;59286;59.274;17.974;2023-02-20T01:19:22;100138.16;;;-2.69;66.40
71476;BME280;59286;59.274;17.974;2023-02-20T01:21:48;100130.00;;;-2.66;66.78
71476;BME280;59286;59.274;17.974;2023-02-20T01:24:14;100114.63;;;-2.66;66.16
71476;BME280;59286;59.274;17.974;2023-02-20T01:26:41;100116.53;;;-2.61;65.87
71476;BME280;59286;59.274;17.974;2023-02-20T01:29:07;100118.41;;;-2.57;66.54
71476;BME280;59286;59.274;17.974;2023-02-20T01:31:32;100114.41;;;-2.53;66.67
71476;BME280;59286;59.274;17.974;2023-02-20T01:33:57;100110.88;;;-2.52;65.88
71476;BME280;59286;59.274;17.974;2023-02-20T01:36:23;100102.59;;;-2.54;65.51
71476;BME280;59286;59.274;17.974;2023-02-20T01:38:48;100087.88;;;-2.47;65.44
71476;BME280;59286;59.274;17.974;2023-02-20T01:41:15;100090.00;;;-2.44;65.24
71476;BME280;59286;59.274;17.974;2023-02-20T01:43:41;100098.25;;;-2.42;64.61
71476;BME280;59286;59.274;17.974;2023-02-20T01:49:01;100070.28;;;-2.32;65.65
71476;BME280;59286;59.274;17.974;2023-02-20T01:51:31;100064.13;;;-2.31;65.68
71476;BME280;59286;59.274;17.974;2023-02-20T01:53:59;100058.56;;;-2.28;65.91
71476;BME280;59286;59.274;17.974;2023-02-20T01:56:25;100051.28;;;-2.31;65.57
71476;BME280;59286;59.274;17.974;2023-02-20T01:58:51;100052.09;;;-2.30;66.34
71476;BME280;59286;59.274;17.974;2023-02-20T02:01:17;100052.41;;;-2.27;65.90
71476;BME280;59286;59.274;17.974;2023-02-20T02:03:46;100037.47;;;-2.30;66.38
71476;BME280;59286;59.274;17.974;2023-02-20T02:06:13;100024.75;;;-2.25;66.71
71476;BME280;59286;59.274;17.974;2023-02-20T02:08:41;100019.63;;;-2.25;64.90
71476;BME280;59286;59.274;17.974;2023-02-20T02:11:12;100016.16;;;-2.30;65.03
71476;BME280;59286;59.274;17.974;2023-02-20T02:13:38;100015.69;;;-2.27;65.81
71476;BME280;59286;59.274;17.974;2023-02-20T02:16:23;99996.19;;;-2.28;65.22
71476;BME280;59286;59.274;17.974;2023-02-20T02:19:29;99989.28;;;-2.28;65.86
71476;BME280;59286;59.274;17.974;2023-02-20T02:31:13;99973.44;;;-2.36;66.56
71476;BME280;59286;59.274;17.974;2023-02-20T02:36:59;99941.84;;;-2.37;65.66
71476;BME280;59286;59.274;17.974;2023-02-20T02:44:39;99909.44;;;-2.43;65.55
71476;BME280;59286;59.274;17.974;2023-02-20T02:47:17;99904.28;;;-2.43;65.02
71476;BME280;59286;59.274;17.974;2023-02-20T02:52:19;99893.91;;;-2.48;65.14
71476;BME280;59286;59.274;17.974;2023-02-20T02:55:03;99877.44;;;-2.52;64.60
71476;BME280;59286;59.274;17.974;2023-02-20T02:57:29;99866.41;;;-2.52;64.78
71476;BME280;59286;59.274;17.974;2023-02-20T03:00:02;99874.09;;;-2.52;65.23
71476;BME280;59286;59.274;17.974;2023-02-20T03:02:32;99876.44;;;-2.51;65.12
71476;BME280;59286;59.274;17.974;2023-02-20T03:05:00;99890.59;;;-2.48;64.46
71476;BME280;59286;59.274;17.974;2023-02-20T03:07:30;99879.53;;;-2.49;65.07
71476;BME280;59286;59.274;17.974;2023-02-20T03:10:03;99884.88;;;-2.39;64.49
71476;BME280;59286;59.274;17.974;2023-02-20T03:12:30;99879.19;;;-2.41;65.59
71476;BME280;59286;59.274;17.974;2023-02-20T03:15:01;99879.28;;;-2.36;65.49
71476;BME280;59286;59.274;17.974;2023-02-20T03:17:54;99873.69;;;-2.33;64.62
71476;BME280;59286;59.274;17.974;2023-02-20T03:20:23;99855.72;;;-2.33;65.85
71476;BME280;59286;59.274;17.974;2023-02-20T03:22:58;99853.28;;;-2.28;64.83
71476;BME280;59286;59.274;17.974;2023-02-20T03:25:27;99855.50;;;-2.31;65.70
71476;BME280;59286;59.274;17.974;2023-02-20T03:28:06;99842.47;;;-2.30;65.56
71476;BME280;59286;59.274;17.974;2023-02-20T03:33:12;99847.53;;;-2.18;65.28
71476;BME280;59286;59.274;17.974;2023-02-20T03:35:59;99837.69;;;-2.10;64.65
71476;BME280;59286;59.274;17.974;2023-02-20T03:38:51;99833.03;;;-2.13;65.62
71476;BME280;59286;59.274;17.974;2023-02-20T03:41:39;99813.13;;;-2.06;64.42
71476;BME280;59286;59.274;17.974;2023-02-20T03:44:25;99811.09;;;-2.04;65.01
71476;BME280;59286;59.274;17.974;2023-02-20T03:46:52;99799.13;;;-1.98;64.73
71476;BME280;59286;59.274;17.974;2023-02-20T03:49:24;99806.00;;;-1.87;64.38
71476;BME280;59286;59.274;17.974;2023-02-20T03:51:51;99786.00;;;-1.85;64.76
71476;BME280;59286;59.274;17.974;2023-02-20T03:54:23;99781.72;;;-1.79;64.92
71476;BME280;59286;59.274;17.974;2023-02-20T03:56:53;99782.25;;;-1.77;64.42
71476;BME280;59286;59.274;17.974;2023-02-20T03:59:41;99734.34;;;-1.88;64.48
71476;BME280;59286;59.274;17.974;2023-02-20T04:02:38;99735.31;;;-1.73;64.00
71476;BME280;59286;59.274;17.974;2023-02-20T04:05:10;99715.41;;;-1.82;64.01
71476;BME280;59286;59.274;17.974;2023-02-20T04:07:45;99713.13;;;-1.79;64.43
71476;BME280;59286;59.274;17.974;2023-02-20T04:10:17;99715.78;;;-1.74;64.66
71476;BME280;59286;59.274;17.974;2023-02-20T04:12:45;99693.44;;;-1.73;65.25
71476;BME280;59286;59.274;17.974;2023-02-20T04:15:12;99679.59;;;-1.72;64.37
71476;BME280;59286;59.274;17.974;2023-02-20T04:17:43;99678.38;;;-1.70;65.15
71476;BME280;59286;59.274;17.974;2023-02-20T04:20:11;99665.66;;;-1.76;64.99
71476;BME280;59286;59.274;17.974;2023-02-20T04:22:39;99663.09;;;-1.76;64.60
71476;BME280;59286;59.274;17.974;2023-02-20T04:28:10;99648.84;;;-1.67;64.97
71476;BME280;59286;59.274;17.974;2023-02-20T04:30:35;99629.56;;;-1.70;64.18
71476;BME280;59286;59.274;17.974;2023-02-20T04:33:01;99622.69;;;-1.64;64.89
71476;BME280;59286;59.274;17.974;2023-02-20T04:35:26;99610.59;;;-1.64;64.32
71476;BME280;59286;59.274;17.974;2023-02-20T04:37:52;99607.56;;;-1.61;64.35
71476;BME280;59286;59.274;17.974;2023-02-20T04:40:19;99590.34;;;-1.60;65.38
71476;BME280;59286;59.274;17.974;2023-02-20T04:42:45;99574.94;;;-1.60;65.42
71476;BME280;59286;59.274;17.974;2023-02-20T04:45:10;99574.19;;;-1.61;64.95
71476;BME280;59286;59.274;17.974;2023-02-20T04:47:36;99579.13;;;-1.54;64.75
71476;BME280;59286;59.274;17.974;2023-02-20T04:50:02;99560.91;;;-1.53;64.29
71476;BME280;59286;59.274;17.974;2023-02-20T04:52:27;99557.38;;;-1.47;64.15
71476;BME280;59286;59.274;17.974;2023-02-20T04:54:53;99549.19;;;-1.44;63.15
71476;BME280;59286;59.274;17.974;2023-02-20T04:57:18;99545.34;;;-1.41;62.65
71476;BME280;59286;59.274;17.974;2023-02-20T04:59:43;99525.75;;;-1.47;63.39
71476;BME280;59286;59.274;17.974;2023-02-20T05:02:09;99529.81;;;-1.30;63.23
71476;BME280;59286;59.274;17.974;2023-02-20T05:04:34;99506.13;;;-1.32;63.63
71476;BME280;59286;59.274;17.974;2023-02-20T05:07:00;99500.00;;;-1.31;63.32
71476;BME280;59286;59.274;17.974;2023-02-20T05:09:26;99478.13;;;-1.33;63.66
71476;BME280;59286;59.274;17.974;2023-02-20T05:11:52;99470.78;;;-1.20;64.16
71476;BME280;59286;59.274;17.974;2023-02-20T05:14:18;99458.22;;;-1.16;64.77
71476;BME280;59286;59.274;17.974;2023-02-20T05:16:43;99454.34;;;-1.19;64.29
71476;BME280;59286;59.274;17.974;2023-02-20T05:19:10;99425.25;;;-1.24;66.00
71476;BME280;59286;59.274;17.974;2023-02-20T05:21:35;99423.50;;;-1.14;65.87
71476;BME280;59286;59.274;17.974;2023-02-20T05:24:20;99405.25;;;-1.17;66.87
71476;BME280;59286;59.274;17.974;2023-02-20T05:26:45;99401.66;;;-1.16;68.09
71476;BME280;59286;59.274;17.974;2023-02-20T05:29:11;99382.38;;;-1.14;69.06
71476;BME280;59286;59.274;17.974;2023-02-20T05:31:41;99378.03;;;-1.13;70.16
71476;BME280;59286;59.274;17.974;2023-02-20T05:34:06;99361.81;;;-1.14;71.04
71476;BME280;59286;59.274;17.974;2023-02-20T05:36:32;99351.00;;;-1.16;72.05
71476;BME280;59286;59.274;17.974;2023-02-20T05:38:57;99332.25;;;-1.16;73.39
71476;BME280;59286;59.274;17.974;2023-02-20T05:41:23;99317.38;;;-1.14;74.79
71476;BME280;59286;59.274;17.974;2023-02-20T05:43:48;99312.16;;;-1.24;75.86
71476;BME280;59286;59.274;17.974;2023-02-20T05:46:14;99298.78;;;-1.26;76.64
71476;BME280;59286;59.274;17.974;2023-02-20T05:48:40;99275.44;;;-1.20;77.48
71476;BME280;59286;59.274;17.974;2023-02-20T05:51:05;99287.00;;;-1.22;78.03
71476;BME280;59286;59.274;17.974;2023-02-20T05:53:31;99276.44;;;-1.26;79.16
71476;BME280;59286;59.274;17.974;2023-02-20T05:55:56;99249.44;;;-1.28;80.49
71476;BME280;59286;59.274;17.974;2023-02-20T05:58:22;99237.88;;;-1.26;80.71
71476;BME280;59286;59.274;17.974;2023-02-20T06:00:48;99228.84;;;-1.33;82.08
71476;BME280;59286;59.274;17.974;2023-02-20T06:03:14;99226.78;;;-1.36;81.93
71476;BME280;59286;59.274;17.974;2023-02-20T06:05:39;99217.59;;;-1.27;82.93
71476;BME280;59286;59.274;17.974;2023-02-20T06:08:04;99199.78;;;-1.39;83.77
71476;BME280;59286;59.274;17.974;2023-02-20T06:10:30;99190.56;;;-1.30;84.39
71476;BME280;59286;59.274;17.974;2023-02-20T06:12:56;99193.09;;;-1.40;85.05
71476;BME280;59286;59.274;17.974;2023-02-20T06:15:21;99173.84;;;-1.42;85.41
71476;BME280;59286;59.274;17.974;2023-02-20T06:17:46;99168.72;;;-1.37;86.70
71476;BME280;59286;59.274;17.974;2023-02-20T06:20:12;99154.06;;;-1.42;86.88
71476;BME280;59286;59.274;17.974;2023-02-20T06:22:37;99147.09;;;-1.41;87.48
71476;BME280;59286;59.274;17.974;2023-02-20T06:25:03;99123.50;;;-1.38;87.76
71476;BME280;59286;59.274;17.974;2023-02-20T06:27:28;99119.38;;;-1.39;88.42
71476;BME280;59286;59.274;17.974;2023-02-20T06:29:53;99098.03;;;-1.40;89.27
71476;BME280;59286;59.274;17.974;2023-02-20T06:32:18;99089.06;;;-1.37;89.65
71476;BME280;59286;59.274;17.974;2023-02-20T06:34:44;99074.16;;;-1.35;90.23
71476;BME280;59286;59.274;17.974;2023-02-20T06:37:09;99057.47;;;-1.33;90.44
71476;BME280;59286;59.274;17.974;2023-02-20T06:39:35;99041.53;;;-1.25;90.99
71476;BME280;59286;59.274;17.974;2023-02-20T06:42:01;99034.59;;;-1.24;91.45
71476;BME280;59286;59.274;17.974;2023-02-20T06:44:26;99018.44;;;-1.20;91.63
71476;BME280;59286;59.274;17.974;2023-02-20T06:46:52;99004.81;;;-1.20;91.89
71476;BME280;59286;59.274;17.974;2023-02-20T06:49:17;98983.47;;;-1.21;93.12
71476;BME280;59286;59.274;17.974;2023-02-20T06:51:43;98985.28;;;-1.16;93.36
71476;BME280;59286;59.274;17.974;2023-02-20T06:54:12;98971.66;;;-1.07;93.10
71476;BME280;59286;59.274;17.974;2023-02-20T06:56:37;98953.88;;;-1.08;93.94
71476;BME280;59286;59.274;17.974;2023-02-20T06:59:04;98943.09;;;-1.00;94.04
71476;BME280;59286;59.274;17.974;2023-02-20T07:01:36;98928.69;;;-0.96;94.38
71476;BME280;59286;59.274;17.974;2023-02-20T07:04:03;98916.34;;;-0.94;94.38
71476;BME280;59286;59.274;17.974;2023-02-20T07:06:29;98904.53;;;-0.90;95.11
71476;BME280;59286;59.274;17.974;2023-02-20T07:08:54;98896.28;;;-0.87;95.25
71476;BME280;59286;59.274;17.974;2023-02-20T07:11:22;98883.91;;;-0.75;95.38
71476;BME280;59286;59.274;17.974;2023-02-20T07:13:47;98869.50;;;-0.76;95.67
71476;BME280;59286;59.274;17.974;2023-02-20T07:16:13;98862.53;;;-0.65;95.94
71476;BME280;59286;59.274;17.974;2023-02-20T07:18:38;98852.22;;;-0.60;96.48
71476;BME280;59286;59.274;17.974;2023-02-20T07:21:04;98843.69;;;-0.56;96.79
71476;BME280;59286;59.274;17.974;2023-02-20T07:23:29;98825.91;;;-0.47;96.75
71476;BME280;59286;59.274;17.974;2023-02-20T07:25:55;98813.50;;;-0.40;97.23
71476;BME280;59286;59.274;17.974;2023-02-20T07:28:20;98786.97;;;-0.31;97.32
71476;BME280;59286;59.274;17.974;2023-02-20T07:30:46;98778.69;;;-0.23;97.49
71476;BME280;59286;59.274;17.974;2023-02-20T07:33:16;98763.69;;;-0.16;97.62
71476;BME280;59286;59.274;17.974;2023-02-20T07:35:41;98755.91;;;-0.11;98.29
71476;BME280;59286;59.274;17.974;2023-02-20T07:38:07;98742.97;;;-0.01;98.25
71476;BME280;59286;59.274;17.974;2023-02-20T07:40:32;98712.06;;;-0.01;97.82
71476;BME280;59286;59.274;17.974;2023-02-20T07:42:58;98704.72;;;0.17;98.33
71476;BME280;59286;59.274;17.974;2023-02-20T07:45:24;98697.38;;;0.29;98.12
71476;BME280;59286;59.274;17.974;2023-02-20T07:47:49;98681.03;;;0.38;98.94
71476;BME280;59286;59.274;17.974;2023-02-20T07:50:15;98669.84;;;0.48;98.68
71476;BME280;59286;59.274;17.974;2023-02-20T07:52:41;98652.22;;;0.55;99.14
71476;BME280;59286;59.274;17.974;2023-02-20T07:55:06;98638.25;;;0.61;98.65
71476;BME280;59286;59.274;17.974;2023-02-20T07:57:34;98635.28;;;0.72;98.57
71476;BME280;59286;59.274;17.974;2023-02-20T08:00:00;98611.78;;;0.74;98.32
71476;BME280;59286;59.274;17.974;2023-02-20T08:02:25;98618.91;;;0.82;97.68
71476;BME280;59286;59.274;17.974;2023-02-20T08:04:50;98611.31;;;0.90;97.56
71476;BME280;59286;59.274;17.974;2023-02-20T08:07:16;98592.97;;;0.92;97.50
71476;BME280;59286;59.274;17.974;2023-02-20T08:09:41;98577.97;;;0.94;97.71
71476;BME280;59286;59.274;17.974;2023-02-20T08:12:06;98566.88;;;0.93;97.66
71476;BME280;59286;59.274;17.974;2023-02-20T08:14:32;98548.34;;;0.91;97.29
71476;BME280;59286;59.274;17.974;2023-02-20T08:16:57;98549.03;;;0.97;97.34
71476;BME280;59286;59.274;17.974;2023-02-20T08:19:22;98514.47;;;0.98;96.89
71476;BME280;59286;59.274;17.974;2023-02-20T08:21:48;98508.25;;;0.99;96.68
71476;BME280;59286;59.274;17.974;2023-02-20T08:24:13;98478.38;;;0.98;97.07
71476;BME280;59286;59.274;17.974;2023-02-20T08:26:46;98488.53;;;1.08;96.77
71476;BME280;59286;59.274;17.974;2023-02-20T08:29:12;98484.69;;;1.06;96.72
71476;BME280;59286;59.274;17.974;2023-02-20T08:31:37;98477.06;;;1.01;97.00
71476;BME280;59286;59.274;17.974;2023-02-20T08:34:03;98467.41;;;1.06;97.04
71476;BME280;59286;59.274;17.974;2023-02-20T08:36:28;98461.56;;;1.01;97.31
71476;BME280;59286;59.274;17.974;2023-02-20T08:38:53;98440.94;;;1.01;97.39
71476;BME280;59286;59.274;17.974;2023-02-20T08:41:19;98434.81;;;1.10;97.39
71476;BME280;59286;59.274;17.974;2023-02-20T08:43:44;98413.63;;;1.13;96.74
71476;BME280;59286;59.274;17.974;2023-02-20T08:46:10;98404.94;;;1.09;96.55
71476;BME280;59286;59.274;17.974;2023-02-20T08:48:36;98386.50;;;1.02;97.11
71476;BME280;59286;59.274;17.974;2023-02-20T08:51:02;98374.84;;;0.91;98.06
71476;BME280;59286;59.274;17.974;2023-02-20T08:53:29;98376.25;;;0.97;97.45
71476;BME280;59286;59.274;17.974;2023-02-20T08:55:54;98364.91;;;0.98;97.56
71476;BME280;59286;59.274;17.974;2023-02-20T08:58:21;98349.53;;;0.93;98.16
71476;BME280;59286;59.274;17.974;2023-02-20T09:00:47;98341.09;;;1.01;97.76
71476;BME280;59286;59.274;17.974;2023-02-20T09:03:12;98332.13;;;1.12;97.26
71476;BME280;59286;59.274;17.974;2023-02-20T09:05:39;98326.50;;;1.24;96.91
71476;BME280;59286;59.274;17.974;2023-02-20T09:08:05;98316.56;;;1.17;96.67
71476;BME280;59286;59.274;17.974;2023-02-20T09:10:31;98308.16;;;1.12;97.20
71476;BME280;59286;59.274;17.974;2023-02-20T09:12:56;98296.13;;;1.07;97.05
71476;BME280;59286;59.274;17.974;2023-02-20T09:15:21;98290.59;;;1.00;97.46
71476;BME280;59286;59.274;17.974;2023-02-20T09:17:48;98283.34;;;1.02;97.98
71476;BME280;59286;59.274;17.974;2023-02-20T09:20:16;98266.72;;;1.08;97.52
71476;BME280;59286;59.274;17.974;2023-02-20T09:22:41;98254.19;;;1.02;97.88
71476;BME280;59286;59.274;17.974;2023-02-20T09:25:09;98242.06;;;1.02;98.03
71476;BME280;59286;59.274;17.974;2023-02-20T09:27:35;98221.09;;;0.95;97.73
71476;BME280;59286;59.274;17.974;2023-02-20T09:30:00;98203.28;;;0.93;98.21
71476;BME280;59286;59.274;17.974;2023-02-20T09:32:26;98207.31;;;0.99;97.94
71476;BME280;59286;59.274;17.974;2023-02-20T09:34:51;98185.91;;;0.99;98.00
71476;BME280;59286;59.274;17.974;2023-02-20T09:37:16;98166.81;;;1.00;98.22
71476;BME280;59286;59.274;17.974;2023-02-20T09:39:42;98151.91;;;0.97;98.36
71476;BME280;59286;59.274;17.974;2023-02-20T09:45:10;98128.69;;;0.97;98.84
71476;BME280;59286;59.274;17.974;2023-02-20T09:50:36;98112.53;;;1.05;98.24
71476;BME280;59286;59.274;17.974;2023-02-20T09:56:11;98077.50;;;1.04;98.22
71476;BME280;59286;59.274;17.974;2023-02-20T09:58:46;98091.72;;;1.02;98.20
71476;BME280;59286;59.274;17.974;2023-02-20T10:01:16;98161.38;;;0.88;99.61
71476;BME280;59286;59.274;17.974;2023-02-20T10:03:55;98104.78;;;1.05;98.91
71476;BME280;59286;59.274;17.974;2023-02-20T10:06:27;98066.06;;;1.19;98.64
71476;BME280;59286;59.274;17.974;2023-02-20T10:08:54;98069.81;;;1.13;98.83
71476;BME280;59286;59.274;17.974;2023-02-20T10:11:45;98055.91;;;1.22;98.21
71476;BME280;59286;59.274;17.974;2023-02-20T10:14:31;98067.69;;;1.15;99.10
71476;BME280;59286;59.274;17.974;2023-02-20T10:20:08;98024.25;;;1.30;98.83
71476;BME280;59286;59.274;17.974;2023-02-20T10:22:44;98015.59;;;1.35;99.01
71476;BME280;59286;59.274;17.974;2023-02-20T10:25:23;98022.94;;;1.50;98.71
71476;BME280;59286;59.274;17.974;2023-02-20T10:33:00;98009.94;;;1.63;98.31
71476;BME280;59286;59.274;17.974;2023-02-20T10:35:41;98003.25;;;1.62;98.16
71476;BME280;59286;59.274;17.974;2023-02-20T10:38:10;97985.06;;;1.67;98.00
71476;BME280;59286;59.274;17.974;2023-02-20T10:40:47;97988.88;;;1.78;97.81
71476;BME280;59286;59.274;17.974;2023-02-20T10:43:19;97982.66;;;1.79;98.26
71476;BME280;59286;59.274;17.974;2023-02-20T10:48:31;97955.47;;;1.82;98.30
71476;BME280;59286;59.274;17.974;2023-02-20T10:51:02;97951.06;;;1.91;97.93
71476;BME280;59286;59.274;17.974;2023-02-20T10:53:58;97942.13;;;1.97;98.05
71476;BME280;59286;59.274;17.974;2023-02-20T11:01:34;97905.97;;;1.97;98.35
71476;BME280;59286;59.274;17.974;2023-02-20T11:04:05;97898.53;;;1.95;98.44
71476;BME280;59286;59.274;17.974;2023-02-20T11:06:39;97887.44;;;1.95;98.76
71476;BME280;59286;59.274;17.974;2023-02-20T11:09:07;97892.16;;;1.84;99.49
71476;BME280;59286;59.274;17.974;2023-02-20T11:11:36;97876.03;;;1.87;99.78
71476;BME280;59286;59.274;17.974;2023-02-20T11:14:19;97888.34;;;1.82;100.00
71476;BME280;59286;59.274;17.974;2023-02-20T11:16:51;97871.03;;;1.82;100.00
71476;BME280;59286;59.274;17.974;2023-02-20T11:19:27;97850.22;;;1.87;100.00
71476;BME280;59286;59.274;17.974;2023-02-20T11:21:54;97854.91;;;1.85;100.00
71476;BME280;59286;59.274;17.974;2023-02-20T11:24:27;97861.47;;;1.91;100.00
71476;BME280;59286;59.274;17.974;2023-02-20T11:26:58;97857.81;;;1.92;100.00
71476;BME280;59286;59.274;17.974;2023-02-20T11:29:28;97848.84;;;1.90;100.00
71476;BME280;59286;59.274;17.974;2023-02-20T11:32:16;97842.31;;;1.92;100.00
71476;BME280;59286;59.274;17.974;2023-02-20T11:34:46;97825.91;;;1.97;100.00
71476;BME280;59286;59.274;17.974;2023-02-20T11:37:12;97826.50;;;2.03;100.00
71476;BME280;59286;59.274;17.974;2023-02-20T11:39:44;97824.22;;;2.10;100.00
71476;BME280;59286;59.274;17.974;2023-02-20T11:42:12;97827.69;;;2.31;100.00
71476;BME280;59286;59.274;17.974;2023-02-20T11:44:39;97828.41;;;2.40;100.00
71476;BME280;59286;59.274;17.974;2023-02-20T11:47:26;97834.19;;;2.45;100.00
71476;BME280;59286;59.274;17.974;2023-02-20T11:52:34;97824.09;;;2.61;100.00
71476;BME280;59286;59.274;17.974;2023-02-20T11:55:21;97822.84;;;2.67;100.00
71476;BME280;59286;59.274;17.974;2023-02-20T11:57:48;97815.53;;;2.69;100.00
71476;BME280;59286;59.274;17.974;2023-02-20T12:00:19;97811.25;;;2.73;100.00
71476;BME280;59286;59.274;17.974;2023-02-20T12:05:44;97808.88;;;2.97;100.00
71476;BME280;59286;59.274;17.974;2023-02-20T12:08:39;97808.31;;;3.12;100.00
71476;BME280;59286;59.274;17.974;2023-02-20T12:11:16;97806.50;;;3.13;100.00
71476;BME280;59286;59.274;17.974;2023-02-20T12:13:44;97812.94;;;3.07;100.00
71476;BME280;59286;59.274;17.974;2023-02-20T12:21:26;97814.75;;;3.06;100.00
71476;BME280;59286;59.274;17.974;2023-02-20T12:27:01;97811.78;;;2.95;100.00
71476;BME280;59286;59.274;17.974;2023-02-20T12:35:33;97828.50;;;2.98;100.00
71476;BME280;59286;59.274;17.974;2023-02-20T12:38:26;97819.00;;;3.11;100.00
71476;BME280;59286;59.274;17.974;2023-02-20T12:41:26;97829.25;;;3.28;100.00
71476;BME280;59286;59.274;17.974;2023-02-20T12:43:57;97824.19;;;3.31;100.00
71476;BME280;59286;59.274;17.974;2023-02-20T12:52:47;97826.69;;;3.19;98.43
71476;BME280;59286;59.274;17.974;2023-02-20T12:58:15;97840.00;;;3.09;99.26
71476;BME280;59286;59.274;17.974;2023-02-20T13:01:06;97836.19;;;3.15;98.74
71476;BME280;59286;59.274;17.974;2023-02-20T13:06:44;97862.19;;;3.19;97.86
71476;BME280;59286;59.274;17.974;2023-02-20T13:09:21;97840.09;;;3.21;98.12
71476;BME280;59286;59.274;17.974;2023-02-20T13:11:55;97855.25;;;3.31;97.96
71476;BME280;59286;59.274;17.974;2023-02-20T13:14:47;97855.66;;;3.42;96.37
71476;BME280;59286;59.274;17.974;2023-02-20T13:17:25;97859.78;;;3.43;96.05
71476;BME280;59286;59.274;17.974;2023-02-20T13:22:32;97854.16;;;3.41;95.81
71476;BME280;59286;59.274;17.974;2023-02-20T13:28:01;97868.28;;;3.43;95.42
71476;BME280;59286;59.274;17.974;2023-02-20T13:30:27;97872.84;;;3.46;95.28
71476;BME280;59286;59.274;17.974;2023-02-20T13:33:28;97879.66;;;3.51;95.06
71476;BME280;59286;59.274;17.974;2023-02-20T13:35:55;97885.34;;;3.44;94.67
71476;BME280;59286;59.274;17.974;2023-02-20T13:38:23;97894.34;;;3.38;94.07
71476;BME280;59286;59.274;17.974;2023-02-20T13:48:39;97904.47;;;3.23;95.28
71476;BME280;59286;59.274;17.974;2023-02-20T13:56:21;97905.94;;;3.03;95.52
71476;BME280;59286;59.274;17.974;2023-02-20T13:58:48;97917.63;;;3.09;95.33
71476;BME280;59286;59.274;17.974;2023-02-20T14:01:14;97927.19;;;3.17;94.79
71476;BME280;59286;59.274;17.974;2023-02-20T14:03:40;97928.44;;;3.11;94.86
71476;BME280;59286;59.274;17.974;2023-02-20T14:08:33;97933.63;;;3.11;94.53
71476;BME280;59286;59.274;17.974;2023-02-20T14:11:10;97929.03;;;3.08;94.66
71476;BME280;59286;59.274;17.974;2023-02-20T14:13:38;97934.53;;;3.07;95.05
71476;BME280;59286;59.274;17.974;2023-02-20T14:16:22;97938.50;;;3.04;94.98
71476;BME280;59286;59.274;17.974;2023-02-20T14:18:48;97936.84;;;3.00;95.50
71476;BME280;59286;59.274;17.974;2023-02-20T14:23:42;97934.72;;;3.02;94.29
71476;BME280;59286;59.274;17.974;2023-02-20T14:26:36;97940.19;;;3.00;94.45
71476;BME280;59286;59.274;17.974;2023-02-20T14:29:03;97934.72;;;2.93;93.96
71476;BME280;59286;59.274;17.974;2023-02-20T14:31:42;97937.16;;;2.98;94.30
71476;BME280;59286;59.274;17.974;2023-02-20T14:34:12;97940.94;;;3.01;94.88
71476;BME280;59286;59.274;17.974;2023-02-20T14:37:01;97951.59;;;2.99;95.29
71476;BME280;59286;59.274;17.974;2023-02-20T14:42:23;97953.44;;;2.90;94.68
71476;BME280;59286;59.274;17.974;2023-02-20T14:44:53;97961.81;;;2.95;94.84
71476;BME280;59286;59.274;17.974;2023-02-20T14:47:22;97969.75;;;2.90;93.73
71476;BME280;59286;59.274;17.974;2023-02-20T14:49:48;97961.06;;;2.78;93.55
71476;BME280;59286;59.274;17.974;2023-02-20T14:52:23;97971.88;;;2.80;93.88
71476;BME280;59286;59.274;17.974;2023-02-20T14:55:02;97975.72;;;2.74;94.48
71476;BME280;59286;59.274;17.974;2023-02-20T14:57:28;97989.09;;;2.76;93.96